createdAt,value
2023-10-28T00:02:16.141Z,77.28
2023-10-28T00:05:20.262Z,75.79
2023-10-28T00:08:24.145Z,76.79
2023-10-28T00:11:28.405Z,75.70
2023-10-28T00:14:32.839Z,74.97
2023-10-28T00:17:38.827Z,75.46
2023-10-28T00:20:45.458Z,74.38
2023-10-28T00:23:49.435Z,74.03
2023-10-28T00:26:53.268Z,73.64
2023-10-28T00:29:57.406Z,74.39
2023-10-28T00:33:02.012Z,74.23
2023-10-28T00:36:08.580Z,75.13
2023-10-28T00:39:12.829Z,74.83
2023-10-28T00:42:18.295Z,73.83
2023-10-28T00:45:22.424Z,74.30
2023-10-28T00:48:27.359Z,73.25
2023-10-28T00:51:33.045Z,73.35
2023-10-28T00:54:37.106Z,73.12
2023-10-28T00:57:45.073Z,74.32
2023-10-28T01:00:49.685Z,73.87
2023-10-28T01:03:55.443Z,74.47
2023-10-28T01:06:59.241Z,72.79
2023-10-28T01:10:04.599Z,71.65
2023-10-28T01:13:09.424Z,71.39
2023-10-28T01:16:14.052Z,72.20
2023-10-28T01:19:18.353Z,71.96
2023-10-28T01:22:22.542Z,72.50
2023-10-28T01:25:26.650Z,71.59
2023-10-28T01:28:30.803Z,72.74
2023-10-28T01:31:35.163Z,73.12
2023-10-28T01:34:52.697Z,72.79
2023-10-28T01:37:56.787Z,76.19
2023-10-28T01:41:01.500Z,74.23
2023-10-28T01:44:06.528Z,74.96
2023-10-28T01:47:10.763Z,76.04
2023-10-28T01:50:15.089Z,73.88
2023-10-28T01:53:19.509Z,73.46
2023-10-28T01:56:23.994Z,73.90
2023-10-28T01:59:28.353Z,75.05
2023-10-28T02:02:37.505Z,76.88
2023-10-28T02:05:41.649Z,76.54
2023-10-28T02:08:46.871Z,74.74
2023-10-28T02:11:53.450Z,73.67
2023-10-28T02:14:57.331Z,72.99
2023-10-28T02:18:01.653Z,73.55
2023-10-28T02:21:05.840Z,72.08
2023-10-28T02:24:10.059Z,73.26
2023-10-28T02:27:14.281Z,72.79
2023-10-28T02:30:18.452Z,73.75
2023-10-28T02:33:22.811Z,74.44
2023-10-28T02:36:26.952Z,74.36
2023-10-28T02:39:31.629Z,75.98
2023-10-28T02:42:36.301Z,74.98
2023-10-28T02:45:40.933Z,73.95
2023-10-28T02:48:44.949Z,73.39
2023-10-28T02:51:49.137Z,74.03
2023-10-28T02:54:54.036Z,76.09
2023-10-28T02:57:58.085Z,73.72
2023-10-28T03:01:12.857Z,73.19
2023-10-28T03:04:18.173Z,74.16
2023-10-28T03:07:22.597Z,73.48
2023-10-28T03:10:27.301Z,72.71
2023-10-28T03:13:31.538Z,73.48
2023-10-28T03:16:36.029Z,73.93
2023-10-28T03:19:40.581Z,74.09
2023-10-28T03:22:44.790Z,72.82
2023-10-28T03:25:48.762Z,72.74
2023-10-28T03:28:52.583Z,72.60
2023-10-28T03:31:56.641Z,74.07
2023-10-28T03:35:00.955Z,72.98
2023-10-28T03:38:05.296Z,72.72
2023-10-28T03:41:12.743Z,72.40
2023-10-28T03:44:16.854Z,72.77
2023-10-28T03:47:22.488Z,72.62
2023-10-28T03:50:26.882Z,72.72
2023-10-28T03:53:31.763Z,71.59
2023-10-28T03:56:35.669Z,72.01
2023-10-28T03:59:39.769Z,73.45
2023-10-28T04:02:43.922Z,73.51
2023-10-28T04:05:51.977Z,75.31
2023-10-28T04:08:56.783Z,74.35
2023-10-28T04:12:01.302Z,75.02
2023-10-28T04:15:06.196Z,74.04
2023-10-28T04:18:10.586Z,74.52
2023-10-28T04:21:15.012Z,73.54
2023-10-28T04:24:19.420Z,73.49
2023-10-28T04:27:23.521Z,73.63
2023-10-28T04:30:28.020Z,74.96
2023-10-28T04:33:32.352Z,73.71
2023-10-28T04:36:36.490Z,75.80
2023-10-28T04:39:42.098Z,79.52
2023-10-28T04:42:48.258Z,80.58
2023-10-28T04:45:53.745Z,81.87
2023-10-28T04:48:58.100Z,79.60
2023-10-28T04:52:02.313Z,82.10
2023-10-28T04:55:06.966Z,81.09
2023-10-28T04:58:11.599Z,79.59
2023-10-28T05:01:16.214Z,78.88
2023-10-28T05:04:20.763Z,80.09
2023-10-28T05:07:25.416Z,78.00
2023-10-28T05:10:31.575Z,80.49
2023-10-28T05:13:35.951Z,78.42
2023-10-28T05:16:40.313Z,77.66
2023-10-28T05:19:45.203Z,77.39
2023-10-28T05:22:49.959Z,76.75
2023-10-28T05:25:55.119Z,78.30
2023-10-28T05:28:59.380Z,77.71
2023-10-28T05:32:03.616Z,77.22
2023-10-28T05:35:11.937Z,77.65
2023-10-28T05:38:16.022Z,77.71
2023-10-28T05:41:20.141Z,79.32
2023-10-28T05:44:24.347Z,80.80
2023-10-28T05:47:28.563Z,80.04
2023-10-28T05:50:32.794Z,78.09
2023-10-28T05:53:37.091Z,79.14
2023-10-28T05:56:41.307Z,78.88
2023-10-28T05:59:45.806Z,79.43
2023-10-28T06:02:50.814Z,77.09
2023-10-28T06:05:56.402Z,76.30
2023-10-28T06:09:00.388Z,76.87
2023-10-28T06:12:05.131Z,76.89
2023-10-28T06:15:10.035Z,77.11
2023-10-28T06:18:14.013Z,76.49
2023-10-28T06:21:17.845Z,77.49
2023-10-28T06:24:21.833Z,77.21
2023-10-28T06:27:26.132Z,77.46
2023-10-28T06:30:30.057Z,76.06
2023-10-28T06:33:33.904Z,75.88
2023-10-28T06:36:38.037Z,74.78
2023-10-28T06:39:42.206Z,74.45
2023-10-28T06:42:46.851Z,73.77
2023-10-28T06:45:51.766Z,73.24
2023-10-28T06:48:55.821Z,73.41
2023-10-28T06:51:59.760Z,72.67
2023-10-28T06:55:04.578Z,72.17
2023-10-28T06:58:08.835Z,72.29
2023-10-28T07:01:13.182Z,71.35
2023-10-28T07:04:17.301Z,71.80
2023-10-28T07:07:21.602Z,70.65
2023-10-28T07:10:26.838Z,70.87
2023-10-28T07:13:31.362Z,71.40
2023-10-28T07:16:35.965Z,71.40
2023-10-28T07:19:40.285Z,71.73
2023-10-28T07:22:44.699Z,72.65
2023-10-28T07:25:49.279Z,75.13
2023-10-28T07:28:53.417Z,74.73
2023-10-28T07:31:58.358Z,74.30
2023-10-28T07:35:03.358Z,72.20
2023-10-28T07:38:07.508Z,72.98
2023-10-28T07:41:11.392Z,69.87
2023-10-28T07:44:15.552Z,69.87
2023-10-28T07:47:19.938Z,71.76
2023-10-28T07:50:24.514Z,70.93
2023-10-28T07:53:28.414Z,70.12
2023-10-28T07:56:33.549Z,69.87
2023-10-28T07:59:37.949Z,69.43
2023-10-28T08:02:46.147Z,69.10
2023-10-28T08:05:50.257Z,68.52
2023-10-28T08:08:54.762Z,66.59
2023-10-28T08:11:58.873Z,65.86
2023-10-28T08:15:04.267Z,67.48
2023-10-28T08:18:08.629Z,68.68
2023-10-28T08:21:15.203Z,66.00
2023-10-28T08:24:22.008Z,66.89
2023-10-28T08:27:26.285Z,67.55
2023-10-28T08:30:30.475Z,67.06
2023-10-28T08:33:38.200Z,64.72
2023-10-28T08:36:45.340Z,65.37
2023-10-28T08:39:49.209Z,62.79
2023-10-28T08:42:53.331Z,62.93
2023-10-28T08:45:57.740Z,65.62
2023-10-28T08:49:02.390Z,65.98
2023-10-28T08:52:08.216Z,64.55
2023-10-28T08:55:12.440Z,67.18
2023-10-28T08:58:17.638Z,68.45
2023-10-28T09:01:25.237Z,67.47
2023-10-28T09:04:29.528Z,70.95
2023-10-28T09:07:33.880Z,69.56
2023-10-28T09:10:42.306Z,70.16
2023-10-28T09:13:46.629Z,72.95
2023-10-28T09:16:50.731Z,77.34
2023-10-28T09:19:55.081Z,77.30
2023-10-28T09:22:59.357Z,78.23
2023-10-28T09:26:04.244Z,77.47
2023-10-28T09:29:09.208Z,76.10
2023-10-28T09:32:13.115Z,76.72
2023-10-28T09:35:17.504Z,77.51
2023-10-28T09:38:21.825Z,79.25
2023-10-28T09:41:28.899Z,80.18
2023-10-28T09:44:35.441Z,78.17
2023-10-28T09:47:39.841Z,78.87
2023-10-28T09:50:50.024Z,79.28
2023-10-28T09:54:01.037Z,78.36
2023-10-28T09:57:05.275Z,79.00
2023-10-28T10:00:24.628Z,77.73
2023-10-28T10:03:35.038Z,75.64
2023-10-28T10:06:38.993Z,77.58
2023-10-28T10:09:49.810Z,74.93
2023-10-28T10:13:04.443Z,76.00
2023-10-28T10:16:15.258Z,74.23
2023-10-28T10:19:29.203Z,74.54
2023-10-28T10:22:36.292Z,76.45
2023-10-28T10:25:44.948Z,75.99
2023-10-28T10:28:49.173Z,77.10
2023-10-28T10:31:54.143Z,77.66
2023-10-28T10:34:58.255Z,78.24
2023-10-28T10:38:09.796Z,77.12
2023-10-28T10:41:25.956Z,72.85
2023-10-28T10:44:35.091Z,70.85
2023-10-28T10:47:39.333Z,69.29
2023-10-28T10:50:43.485Z,69.32
2023-10-28T10:53:47.766Z,69.26
2023-10-28T10:56:52.208Z,69.06
2023-10-28T10:59:56.349Z,69.23
2023-10-28T11:03:01.583Z,68.81
2023-10-28T11:06:06.479Z,69.54
2023-10-28T11:09:10.921Z,68.98
2023-10-28T11:12:15.756Z,67.09
2023-10-28T11:15:22.987Z,64.97
2023-10-28T11:18:27.482Z,64.47
2023-10-28T11:21:32.956Z,62.46
2023-10-28T11:24:38.633Z,59.51
2023-10-28T11:27:42.912Z,53.02
2023-10-28T11:30:51.968Z,51.33
2023-10-28T11:33:58.055Z,47.36
2023-10-28T11:37:02.186Z,46.77
2023-10-28T11:40:07.112Z,40.14
2023-10-28T11:43:17.617Z,34.77
2023-10-28T11:46:22.457Z,27.87
2023-10-28T11:49:26.557Z,21.82
2023-10-28T11:52:30.915Z,29.66
2023-10-28T11:55:35.080Z,35.75
2023-10-28T11:58:39.507Z,38.08
2023-10-28T12:01:43.611Z,37.99
2023-10-28T12:04:47.946Z,37.54
2023-10-28T12:07:51.898Z,36.30
2023-10-28T12:10:56.470Z,37.01
2023-10-28T12:14:00.609Z,38.54
2023-10-28T12:17:05.023Z,40.31
2023-10-28T12:20:09.485Z,44.95
2023-10-28T12:23:14.458Z,46.74
2023-10-28T12:26:21.513Z,50.68
2023-10-28T12:29:26.345Z,50.90
2023-10-28T12:32:30.573Z,50.37
2023-10-28T12:35:35.170Z,52.43
2023-10-28T12:38:46.161Z,52.06
2023-10-28T12:41:50.840Z,52.25
2023-10-28T12:44:54.997Z,51.69
2023-10-28T12:47:59.051Z,51.61
2023-10-28T12:51:03.651Z,51.37
2023-10-28T12:54:07.867Z,54.11
2023-10-28T12:57:12.718Z,52.73
2023-10-28T13:00:18.699Z,52.55
2023-10-28T13:03:22.926Z,53.39
2023-10-28T13:06:27.025Z,53.91
2023-10-28T13:09:31.363Z,55.11
2023-10-28T13:12:35.721Z,55.57
2023-10-28T13:15:41.250Z,53.43
2023-10-28T13:18:45.572Z,53.40
2023-10-28T13:21:50.727Z,50.78
2023-10-28T13:24:54.982Z,51.09
2023-10-28T13:27:59.075Z,51.53
2023-10-28T13:31:03.155Z,52.70
2023-10-28T13:34:09.902Z,51.28
2023-10-28T13:37:16.420Z,52.38
2023-10-28T13:40:20.800Z,51.86
2023-10-28T13:43:25.026Z,53.52
2023-10-28T13:46:29.408Z,54.35
2023-10-28T13:49:34.498Z,53.29
2023-10-28T13:52:39.970Z,53.85
2023-10-28T13:55:43.774Z,51.63
2023-10-28T13:58:48.044Z,51.96
2023-10-28T14:01:52.994Z,55.41
2023-10-28T14:04:57.167Z,55.74
2023-10-28T14:08:01.811Z,57.11
2023-10-28T14:11:09.344Z,57.38
2023-10-28T14:14:14.724Z,58.77
2023-10-28T14:17:18.644Z,60.65
2023-10-28T14:20:22.891Z,60.62
2023-10-28T14:23:27.144Z,62.21
2023-10-28T14:26:31.345Z,60.12
2023-10-28T14:29:35.647Z,61.84
2023-10-28T14:32:39.840Z,63.54
2023-10-28T14:35:44.473Z,62.92
2023-10-28T14:38:48.520Z,67.40
2023-10-28T14:41:52.424Z,64.88
2023-10-28T14:44:56.441Z,63.42
2023-10-28T14:48:01.239Z,66.65
2023-10-28T14:51:08.090Z,68.14
2023-10-28T14:54:13.152Z,67.37
2023-10-28T14:57:17.098Z,67.56
2023-10-28T15:00:23.720Z,67.96
2023-10-28T15:03:27.695Z,67.25
2023-10-28T15:06:32.192Z,69.00
2023-10-28T15:09:36.449Z,69.21
2023-10-28T15:12:40.711Z,67.79
2023-10-28T15:15:44.976Z,68.27
2023-10-28T15:18:50.317Z,68.02
2023-10-28T15:21:56.182Z,68.38
2023-10-28T15:24:59.981Z,68.09
2023-10-28T15:28:04.422Z,67.66
2023-10-28T15:31:10.917Z,66.68
2023-10-28T15:34:15.027Z,67.66
2023-10-28T15:37:19.354Z,67.58
2023-10-28T15:40:24.222Z,67.13
2023-10-28T15:43:29.605Z,65.78
2023-10-28T15:46:33.785Z,67.31
2023-10-28T15:49:38.118Z,67.53
2023-10-28T15:52:42.261Z,66.29
2023-10-28T15:55:46.852Z,65.83
2023-10-28T15:58:52.416Z,65.71
2023-10-28T16:01:56.351Z,65.84
2023-10-28T16:05:00.565Z,65.74
2023-10-28T16:08:05.422Z,66.36
2023-10-28T16:11:12.131Z,66.28
2023-10-28T16:14:16.628Z,66.82
2023-10-28T16:17:21.378Z,65.19
2023-10-28T16:20:25.772Z,66.87
2023-10-28T16:23:30.624Z,66.61
2023-10-28T16:26:35.172Z,67.42
2023-10-28T16:29:39.133Z,67.88
2023-10-28T16:32:43.614Z,67.38
2023-10-28T16:35:48.197Z,67.61
2023-10-28T16:38:52.317Z,66.80
2023-10-28T16:41:56.657Z,68.65
2023-10-28T16:45:00.866Z,69.72
2023-10-28T16:48:05.351Z,69.79
2023-10-28T16:51:14.233Z,70.83
2023-10-28T16:54:18.161Z,69.50
2023-10-28T16:57:22.502Z,70.43
2023-10-28T17:00:26.917Z,68.43
2023-10-28T17:03:31.803Z,70.98
2023-10-28T17:06:35.986Z,69.84
2023-10-28T17:09:40.019Z,67.94
2023-10-28T17:12:44.262Z,68.18
2023-10-28T17:15:48.576Z,68.90
2023-10-28T17:18:52.786Z,69.38
2023-10-28T17:21:56.827Z,70.76
2023-10-28T17:25:01.039Z,69.68
2023-10-28T17:28:05.462Z,69.61
2023-10-28T17:31:12.879Z,69.72
2023-10-28T17:34:17.281Z,70.24
2023-10-28T17:37:21.415Z,69.77
2023-10-28T17:40:25.608Z,70.03
2023-10-28T17:43:29.938Z,71.28
2023-10-28T17:46:34.216Z,73.50
2023-10-28T17:49:38.928Z,71.83
2023-10-28T17:52:44.558Z,72.21
2023-10-28T17:55:48.408Z,72.55
2023-10-28T17:58:52.225Z,70.93
2023-10-28T18:01:56.379Z,71.88
2023-10-28T18:05:00.566Z,71.41
2023-10-28T18:08:04.895Z,70.62
2023-10-28T18:11:09.879Z,71.73
2023-10-28T18:14:14.264Z,72.04
2023-10-28T18:17:18.605Z,71.56
2023-10-28T18:20:23.048Z,73.09
2023-10-28T18:23:32.510Z,72.49
2023-10-28T18:26:37.144Z,73.16
2023-10-28T18:29:42.826Z,71.47
2023-10-28T18:32:46.952Z,71.57
2023-10-28T18:35:51.223Z,70.69
2023-10-28T18:38:55.762Z,70.45
2023-10-28T18:42:00.316Z,70.96
2023-10-28T18:45:05.364Z,70.12
2023-10-28T18:48:10.710Z,72.21
2023-10-28T18:51:15.275Z,70.24
2023-10-28T18:54:19.856Z,69.69
2023-10-28T18:57:24.149Z,70.46
2023-10-28T19:00:28.552Z,70.65
2023-10-28T19:03:33.130Z,70.00
2023-10-28T19:06:36.924Z,70.05
2023-10-28T19:09:41.045Z,68.86
2023-10-28T19:12:45.596Z,67.07
2023-10-28T19:15:50.944Z,66.24
2023-10-28T19:18:55.299Z,66.49
2023-10-28T19:22:00.607Z,66.84
2023-10-28T19:25:06.832Z,68.60
2023-10-28T19:28:11.097Z,68.66
2023-10-28T19:31:15.590Z,68.66
2023-10-28T19:34:20.013Z,68.93
2023-10-28T19:37:24.212Z,69.80
2023-10-28T19:40:28.485Z,68.16
2023-10-28T19:43:35.877Z,68.04
2023-10-28T19:46:39.916Z,68.06
2023-10-28T19:49:44.631Z,68.10
2023-10-28T19:52:48.679Z,67.55
2023-10-28T19:55:53.100Z,67.99
2023-10-28T19:58:56.976Z,68.22
2023-10-28T20:02:01.317Z,68.10
2023-10-28T20:05:07.614Z,67.15
2023-10-28T20:08:11.548Z,67.52
2023-10-28T20:11:16.138Z,67.36
2023-10-28T20:14:21.313Z,67.20
2023-10-28T20:17:26.191Z,66.33
2023-10-28T20:20:30.669Z,68.41
2023-10-28T20:23:34.921Z,69.00
2023-10-28T20:26:39.846Z,67.04
2023-10-28T20:29:44.374Z,70.08
2023-10-28T20:32:48.629Z,69.26
2023-10-28T20:35:53.765Z,70.40
2023-10-28T20:38:58.158Z,72.25
2023-10-28T20:42:02.527Z,73.27
2023-10-28T20:45:09.937Z,74.07
2023-10-28T20:48:14.140Z,77.04
2023-10-28T20:51:21.637Z,76.96
2023-10-28T20:54:25.661Z,76.47
2023-10-28T20:57:29.859Z,78.33
2023-10-28T21:00:34.134Z,77.85
2023-10-28T21:03:38.452Z,79.01
2023-10-28T21:06:42.674Z,80.08
2023-10-28T21:09:47.039Z,80.35
2023-10-28T21:12:51.178Z,80.86
2023-10-28T21:15:56.115Z,82.08
2023-10-28T21:19:00.334Z,79.58
2023-10-28T21:22:04.489Z,79.02
2023-10-28T21:25:08.981Z,79.66
2023-10-28T21:28:13.089Z,80.05
2023-10-28T21:31:17.493Z,81.67
2023-10-28T21:34:21.526Z,79.79
2023-10-28T21:37:26.364Z,80.57
2023-10-28T21:40:30.262Z,81.28
2023-10-28T21:43:34.807Z,82.22
2023-10-28T21:46:39.049Z,80.91
2023-10-28T21:49:43.466Z,82.36
2023-10-28T21:52:47.723Z,82.80
2023-10-28T21:55:51.628Z,81.85
2023-10-28T21:58:56.604Z,81.01
2023-10-28T22:02:00.950Z,82.57
2023-10-28T22:05:05.459Z,81.82
2023-10-28T22:08:09.995Z,83.60
2023-10-28T22:11:13.848Z,84.00
2023-10-28T22:14:18.462Z,84.91
2023-10-28T22:17:23.291Z,86.16
2023-10-28T22:20:27.653Z,85.04
2023-10-28T22:23:31.792Z,83.83
2023-10-28T22:26:35.918Z,82.30
2023-10-28T22:29:40.136Z,86.18
2023-10-28T22:32:44.453Z,86.06
2023-10-28T22:35:48.954Z,85.50
2023-10-28T22:38:54.784Z,85.43
2023-10-28T22:41:58.516Z,85.03
2023-10-28T22:45:05.515Z,84.09
2023-10-28T22:48:09.980Z,85.21
2023-10-28T22:51:14.346Z,83.22
2023-10-28T22:54:18.775Z,84.59
2023-10-28T22:57:23.679Z,85.73
2023-10-28T23:00:32.266Z,85.53
2023-10-28T23:03:36.262Z,84.08
2023-10-28T23:06:40.397Z,85.17
2023-10-28T23:09:44.705Z,85.00
2023-10-28T23:12:49.033Z,84.29
2023-10-28T23:15:53.665Z,83.42
2023-10-28T23:18:57.499Z,84.42
2023-10-28T23:22:01.836Z,84.24
2023-10-28T23:25:09.978Z,83.34
2023-10-28T23:28:14.328Z,83.36
2023-10-28T23:31:18.603Z,84.79
2023-10-28T23:34:22.819Z,83.09
2023-10-28T23:37:34.018Z,82.88
2023-10-28T23:40:38.476Z,83.50
2023-10-28T23:43:42.414Z,84.15
2023-10-28T23:46:47.822Z,84.17
2023-10-28T23:49:51.907Z,84.55
2023-10-28T23:52:56.096Z,85.41
2023-10-28T23:56:00.302Z,84.93
2023-10-28T23:59:04.481Z,82.96
